Coquimbo, Chile
Current Conditions -  °F | °C
As of 3:00 PM on Thursday 23 Oct 2014 (Local Time) from SCSE Reporting Station
Broken Clouds Broken Clouds  
Wind Chill: 63°   Ceiling: 1700
Heat Index: 63°   Visibility: 6mi
Dew Point: 54°   Wind: 9mph
Humidity: 72%   Direction: 270°W
Pressure: 30"   Gusts: NA
Location:  29.96°S, 71.33°W
Report Text: SCSE 231900Z 27008KT 9999 BKN017 17/12 Q1016
Loading
Personal Weather Stations






























Interactive Weather Map
Tropical Storm Tracking
New forecast layout! Learn more

10-Day Weather Forecast

Advertisements
Track Severe Weather on mobile